TimeEDT,TemperatureF,Dew PointF,Humidity,Sea Level PressureIn,VisibilityMPH,Wind Direction,Wind SpeedMPH,Gust SpeedMPH,PrecipitationIn,Events,Conditions,WindDirDegrees,DateUTC
12:54 AM,59.0,55.9,90,29.69,10.0,ENE,8.1,-,0.02,Rain,Light Rain,70,2011-10-01 04:54:00
2:54 AM,57.0,54.0,89,29.66,10.0,NW,4.6,-,0.00,,Mostly Cloudy,310,2011-10-01 06:54:00
3:54 AM,57.0,54.0,89,29.65,10.0,North,3.5,-,N/A,,Mostly Cloudy,10,2011-10-01 07:54:00
5:54 AM,55.9,54.0,93,29.67,10.0,WSW,3.5,-,0.00,,Mostly Cloudy,250,2011-10-01 09:54:00
6:54 AM,57.0,53.1,87,29.68,10.0,West,6.9,-,N/A,,Overcast,280,2011-10-01 10:54:00
8:54 AM,59.0,52.0,78,29.69,10.0,NW,8.1,-,N/A,,Clear,310,2011-10-01 12:54:00
9:54 AM,62.6,51.8,68,29.70,10.0,NNW,10.4,-,N/A,,Clear,340,2011-10-01 13:54:00
10:52 AM,62.6,51.8,68,29.71,10.0,North,8.1,-,N/A,,Overcast,350,2011-10-01 14:52:00
12:34 PM,64.4,53.6,68,29.71,10.0,NNW,4.6,-,N/A,,Overcast,330,2011-10-01 16:34:00
12:54 PM,64.0,53.1,67,29.71,10.0,WNW,8.1,-,N/A,,Mostly Cloudy,290,2011-10-01 16:54:00
1:51 PM,62.6,53.6,72,29.70,10.0,WNW,9.2,-,N/A,,Overcast,290,2011-10-01 17:51:00
1:54 PM,62.6,51.8,68,29.70,10.0,WNW,8.1,-,N/A,,Overcast,290,2011-10-01 17:54:00
4:54 PM,63.0,52.0,67,29.71,10.0,NNW,5.8,-,N/A,,Overcast,330,2011-10-01 20:54:00
5:54 PM,63.0,52.0,67,29.72,10.0,NW,3.5,-,N/A,,Overcast,310,2011-10-01 21:54:00
6:54 PM,60.1,51.1,72,29.73,10.0,WNW,10.4,-,N/A,,Overcast,300,2011-10-01 22:54:00
9:54 PM,55.9,52.0,87,29.75,10.0,North,10.4,-,0.00,Rain,Light Rain,350,2011-10-02 01:54:00
10:05 PM,55.4,51.8,88,29.76,9.0,Variable,3.5,-,0.00,Rain,Light Rain,0,2011-10-02 02:05:00
10:20 PM,53.6,51.8,94,29.75,2.0,WNW,5.8,16.1,0.15,Rain,Heavy Rain,290,2011-10-02 02:20:00
10:31 PM,53.6,51.8,94,29.75,5.0,NNW,15.0,-,0.21,Rain,Rain,340,2011-10-02 02:31:00
10:44 PM,53.6,51.8,94,29.76,5.0,NNW,6.9,-,N/A,Rain,Rain,330,2011-10-02 02:44:00
10:54 PM,54.0,51.1,90,29.75,10.0,North,10.4,-,0.24,Rain,Light Rain,360,2011-10-02 02:54:00
11:15 PM,53.6,51.8,94,29.75,10.0,NNW,9.2,-,0.00,,Overcast,340,2011-10-02 03:15:00